createdAt,value
2019-04-11T00:01:00.619Z,26.80
2019-04-11T00:03:34.008Z,26.80
2019-04-11T00:06:07.940Z,26.90
2019-04-11T00:08:43.988Z,27.00
2019-04-11T00:11:16.298Z,27.00
2019-04-11T00:13:49.620Z,27.00
2019-04-11T00:16:23.468Z,27.10
2019-04-11T00:18:59.202Z,27.00
2019-04-11T00:21:32.959Z,27.10
2019-04-11T00:24:06.981Z,27.20
2019-04-11T00:26:40.300Z,27.30
2019-04-11T00:29:12.861Z,27.30
2019-04-11T00:31:46.970Z,27.40
2019-04-11T00:34:20.917Z,27.60
2019-04-11T00:36:53.267Z,27.60
2019-04-11T00:39:27.804Z,27.80
2019-04-11T00:42:00.420Z,27.90
2019-04-11T00:44:33.026Z,28.00
2019-04-11T00:47:06.919Z,28.10
2019-04-11T00:49:40.761Z,28.30
2019-04-11T00:52:14.326Z,28.40
2019-04-11T00:54:47.758Z,28.50
2019-04-11T00:57:21.074Z,28.60
2019-04-11T00:59:54.664Z,28.70
2019-04-11T01:02:31.491Z,28.90
2019-04-11T01:05:03.991Z,29.00
2019-04-11T01:07:38.717Z,29.10
2019-04-11T01:10:13.943Z,29.20
2019-04-11T01:12:47.398Z,29.30
2019-04-11T01:15:24.618Z,29.50
2019-04-11T01:17:59.297Z,29.60
2019-04-11T01:20:35.527Z,29.70
2019-04-11T01:23:09.004Z,29.80
2019-04-11T01:25:41.497Z,29.90
2019-04-11T01:28:14.309Z,30.00
2019-04-11T01:30:57.520Z,30.10
2019-04-11T01:33:31.751Z,30.20
2019-04-11T01:36:05.474Z,30.30
2019-04-11T01:38:40.794Z,30.40
2019-04-11T01:41:14.100Z,30.50
2019-04-11T01:43:54.280Z,30.60
2019-04-11T01:46:22.283Z,30.70
2019-04-11T01:48:59.707Z,30.70
2019-04-11T01:51:32.009Z,30.80
2019-04-11T01:54:07.969Z,30.90
2019-04-11T01:56:41.173Z,31.00
2019-04-11T01:59:13.698Z,31.10
2019-04-11T02:02:05.501Z,31.20
2019-04-11T02:04:41.069Z,31.30
2019-04-11T02:07:15.327Z,31.40
2019-04-11T02:09:49.023Z,31.50
2019-04-11T02:12:26.827Z,31.50
2019-04-11T02:15:00.328Z,31.60
2019-04-11T02:17:32.846Z,31.70
2019-04-11T02:20:07.045Z,31.80
2019-04-11T02:22:57.411Z,31.90
2019-04-11T02:25:49.039Z,32.00
2019-04-11T02:28:22.904Z,32.20
2019-04-11T02:30:57.454Z,32.30
2019-04-11T02:33:30.686Z,32.40
2019-04-11T02:36:04.618Z,32.60
2019-04-11T02:38:39.098Z,32.70
2019-04-11T02:41:14.183Z,32.80
2019-04-11T02:43:49.087Z,33.00
2019-04-11T02:46:33.070Z,33.10
2019-04-11T02:48:56.707Z,33.20
2019-04-11T02:51:31.181Z,33.40
2019-04-11T02:54:07.614Z,33.40
2019-04-11T02:56:43.191Z,33.60
2019-04-11T02:59:15.400Z,33.60
2019-04-11T03:01:48.592Z,33.80
2019-04-11T03:04:22.772Z,33.90
2019-04-11T03:06:57.426Z,33.90
2019-04-11T03:09:31.799Z,34.00
2019-04-11T03:12:07.171Z,34.20
2019-04-11T03:15:02.033Z,34.30
2019-04-11T03:17:21.359Z,34.40
2019-04-11T03:20:04.365Z,34.50
2019-04-11T03:22:26.538Z,34.70
2019-04-11T03:25:00.316Z,34.70
2019-04-11T03:27:34.894Z,34.80
2019-04-11T03:30:14.604Z,34.90
2019-04-11T03:36:08.533Z,35.00
2019-04-11T03:38:21.486Z,35.10
2019-04-11T03:40:50.116Z,35.20
2019-04-11T03:43:22.088Z,35.30
2019-04-11T03:46:04.051Z,35.50
2019-04-11T03:48:32.909Z,35.60
2019-04-11T03:50:57.318Z,35.70
2019-04-11T03:53:32.082Z,35.70
2019-04-11T03:56:05.325Z,35.80
2019-04-11T03:58:39.532Z,35.90
2019-04-11T04:01:11.813Z,36.00
2019-04-11T04:03:46.549Z,36.10
2019-04-11T04:06:19.103Z,36.20
2019-04-11T04:08:55.276Z,36.30
2019-04-11T04:11:29.911Z,36.50
2019-04-11T04:14:21.523Z,36.70
2019-04-11T04:17:14.871Z,36.70
2019-04-11T04:19:57.097Z,36.80
2019-04-11T04:22:32.195Z,36.90
2019-04-11T04:25:05.684Z,37.00
2019-04-11T04:27:38.757Z,37.20
2019-04-11T04:30:13.744Z,37.20
2019-04-11T04:32:49.132Z,37.30
2019-04-11T04:35:24.093Z,37.40
2019-04-11T04:37:59.276Z,37.40
2019-04-11T04:40:50.030Z,37.40
2019-04-11T04:43:08.167Z,37.50
2019-04-11T04:46:07.390Z,37.50
2019-04-11T04:48:24.185Z,37.60
2019-04-11T04:50:57.073Z,37.60
2019-04-11T04:53:30.771Z,37.80
2019-04-11T04:56:02.662Z,37.90
2019-04-11T04:58:35.585Z,38.00
2019-04-11T05:01:10.015Z,38.10
2019-04-11T05:03:44.692Z,38.00
2019-04-11T05:06:18.470Z,38.00
2019-04-11T05:08:53.012Z,38.10
2019-04-11T05:11:28.215Z,38.20
2019-04-11T05:14:07.173Z,38.20
2019-04-11T05:16:41.799Z,38.20
2019-04-11T05:19:15.688Z,38.20
2019-04-11T05:21:50.528Z,38.10
2019-04-11T05:24:24.290Z,38.00
2019-04-11T05:27:01.978Z,37.90
2019-04-11T05:29:37.531Z,37.80
2019-04-11T05:32:11.653Z,37.80
2019-04-11T05:34:49.720Z,37.80
2019-04-11T05:37:23.052Z,37.80
2019-04-11T05:39:58.781Z,37.70
2019-04-11T05:42:34.000Z,37.70
2019-04-11T05:45:15.207Z,37.70
2019-04-11T05:47:43.302Z,37.90
2019-04-11T05:50:17.948Z,38.00
2019-04-11T05:52:52.483Z,38.10
2019-04-11T05:55:26.415Z,38.20
2019-04-11T05:58:00.848Z,38.30
2019-04-11T06:00:40.955Z,38.40
2019-04-11T06:03:17.627Z,38.40
2019-04-11T06:05:59.703Z,38.30
2019-04-11T06:08:32.215Z,38.30
2019-04-11T06:11:16.446Z,38.30
2019-04-11T06:13:48.822Z,38.40
2019-04-11T06:16:23.990Z,38.40
2019-04-11T06:18:58.800Z,38.30
2019-04-11T06:21:34.485Z,38.30
2019-04-11T06:24:25.928Z,38.30
2019-04-11T06:27:01.898Z,38.40
2019-04-11T06:29:38.890Z,38.40
2019-04-11T06:32:31.919Z,38.40
2019-04-11T06:35:08.059Z,38.40
2019-04-11T06:37:43.699Z,38.50
2019-04-11T06:40:23.236Z,38.50
2019-04-11T06:43:13.928Z,38.60
2019-04-11T06:46:04.899Z,38.60
2019-04-11T06:48:56.096Z,38.50
2019-04-11T06:51:39.928Z,38.50
2019-04-11T06:54:30.736Z,38.30
2019-04-11T06:57:05.515Z,38.30
2019-04-11T06:59:40.705Z,38.40
2019-04-11T07:02:19.534Z,38.40
2019-04-11T07:04:51.766Z,38.40
2019-04-11T07:07:27.590Z,38.40
2019-04-11T07:10:03.916Z,38.50
2019-04-11T07:12:40.667Z,38.60
2019-04-11T07:15:31.763Z,38.70
2019-04-11T07:18:22.982Z,38.70
2019-04-11T07:20:58.528Z,38.70
2019-04-11T07:23:49.700Z,38.70
2019-04-11T07:26:25.490Z,38.70
2019-04-11T07:28:59.224Z,38.60
2019-04-11T07:31:39.906Z,38.60
2019-04-11T07:34:14.676Z,38.50
2019-04-11T07:36:48.476Z,38.50
2019-04-11T07:39:33.515Z,38.60
2019-04-11T07:42:23.896Z,38.70
2019-04-11T07:44:57.628Z,38.80
2019-04-11T07:47:39.748Z,38.90
2019-04-11T07:50:12.288Z,38.90
2019-04-11T07:52:49.539Z,38.90
2019-04-11T07:55:23.459Z,38.80
2019-04-11T07:58:13.288Z,38.80
2019-04-11T08:01:03.703Z,38.70
2019-04-11T08:03:55.758Z,38.70
2019-04-11T08:06:31.058Z,38.70
2019-04-11T08:09:05.035Z,38.80
2019-04-11T08:11:40.158Z,38.80
2019-04-11T08:14:32.763Z,38.80
2019-04-11T08:17:12.429Z,38.80
2019-04-11T08:20:03.223Z,38.70
2019-04-11T08:22:39.098Z,38.70
2019-04-11T08:25:13.274Z,38.70
2019-04-11T08:28:07.644Z,38.70
2019-04-11T08:30:41.515Z,38.70
2019-04-11T08:33:16.266Z,38.80
2019-04-11T08:36:07.239Z,38.80
2019-04-11T08:38:40.922Z,38.70
2019-04-11T08:41:21.513Z,38.70
2019-04-11T08:43:55.238Z,38.50
2019-04-11T08:46:35.721Z,38.50
2019-04-11T08:49:13.123Z,38.40
2019-04-11T08:51:47.416Z,38.30
2019-04-11T08:54:24.438Z,38.30
2019-04-11T08:56:59.045Z,38.20
2019-04-11T08:59:51.431Z,38.20
2019-04-11T09:02:25.457Z,38.20
2019-04-11T09:05:13.672Z,38.10
2019-04-11T09:07:43.613Z,38.10
2019-04-11T09:10:33.772Z,38.20
2019-04-11T09:13:09.771Z,38.10
2019-04-11T09:15:59.363Z,38.10
2019-04-11T09:18:34.161Z,38.10
2019-04-11T09:21:09.794Z,38.10
2019-04-11T09:23:42.287Z,38.10
2019-04-11T09:26:31.885Z,38.10
2019-04-11T09:29:04.599Z,38.20
2019-04-11T09:31:41.683Z,38.20
2019-04-11T09:34:23.780Z,38.20
2019-04-11T09:37:05.147Z,38.20
2019-04-11T09:39:39.771Z,38.30
2019-04-11T09:42:22.999Z,38.30
2019-04-11T09:44:57.411Z,38.20
2019-04-11T09:47:38.356Z,38.20
2019-04-11T09:50:30.551Z,38.20
2019-04-11T09:53:03.977Z,38.20
2019-04-11T09:55:39.583Z,38.20
2019-04-11T09:58:33.649Z,38.10
2019-04-11T10:01:08.053Z,38.10
2019-04-11T10:03:41.484Z,38.10
2019-04-11T10:06:23.738Z,38.00
2019-04-11T10:08:59.732Z,38.00
2019-04-11T10:11:35.122Z,38.00
2019-04-11T10:14:09.739Z,38.00
2019-04-11T10:17:00.235Z,37.90
2019-04-11T10:19:50.118Z,37.90
2019-04-11T10:22:41.546Z,37.90
2019-04-11T10:25:17.217Z,37.80
2019-04-11T10:27:51.031Z,37.90
2019-04-11T10:30:42.193Z,37.80
2019-04-11T10:33:17.311Z,37.80
2019-04-11T10:36:08.227Z,37.80
2019-04-11T10:38:44.633Z,37.80
2019-04-11T10:41:19.372Z,37.80
2019-04-11T10:43:53.811Z,37.80
2019-04-11T10:46:43.894Z,37.80
2019-04-11T10:49:34.476Z,37.80
2019-04-11T10:52:08.041Z,37.70
2019-04-11T10:54:44.983Z,37.70
2019-04-11T10:57:22.633Z,37.70
2019-04-11T10:59:56.581Z,37.60
2019-04-11T11:02:31.683Z,37.60
2019-04-11T11:05:05.256Z,37.50
2019-04-11T11:07:38.822Z,37.50
2019-04-11T11:10:13.231Z,37.50
2019-04-11T11:13:03.988Z,37.40
2019-04-11T11:15:39.813Z,37.30
2019-04-11T11:18:39.900Z,37.30
2019-04-11T11:21:07.505Z,37.20
2019-04-11T11:23:42.850Z,37.10
2019-04-11T11:26:22.532Z,37.10
2019-04-11T11:29:00.428Z,37.00
2019-04-11T11:31:50.096Z,36.90
2019-04-11T11:34:24.978Z,36.90
2019-04-11T11:37:01.544Z,36.80
2019-04-11T11:39:37.306Z,36.70
2019-04-11T11:42:10.874Z,36.70
2019-04-11T11:44:59.701Z,36.70
2019-04-11T11:47:51.155Z,36.50
2019-04-11T11:50:26.692Z,36.50
2019-04-11T11:53:16.610Z,36.40
2019-04-11T11:55:51.827Z,36.30
2019-04-11T11:58:42.346Z,36.30
2019-04-11T12:01:16.415Z,36.20
2019-04-11T12:03:50.882Z,36.10
2019-04-11T12:06:25.168Z,36.00
2019-04-11T12:09:14.066Z,36.00
2019-04-11T12:11:51.525Z,36.00
2019-04-11T12:14:33.052Z,35.90
2019-04-11T12:17:24.882Z,35.80
2019-04-11T12:20:11.067Z,35.80
2019-04-11T12:22:42.219Z,35.80
2019-04-11T12:25:16.804Z,35.80
2019-04-11T12:27:52.145Z,35.70
2019-04-11T12:30:33.848Z,35.70
2019-04-11T12:33:23.622Z,35.70
2019-04-11T12:36:01.291Z,35.60
2019-04-11T12:38:34.457Z,35.60
2019-04-11T12:41:16.294Z,35.60
2019-04-11T12:43:57.069Z,35.50
2019-04-11T12:46:47.066Z,35.50
2019-04-11T12:49:23.504Z,35.50
2019-04-11T12:51:58.485Z,35.40
2019-04-11T12:54:49.208Z,35.40
2019-04-11T12:57:38.588Z,35.40
2019-04-11T13:00:31.576Z,35.30
2019-04-11T13:03:06.104Z,35.20
2019-04-11T13:05:39.495Z,35.10
2019-04-11T13:08:30.732Z,35.00
2019-04-11T13:11:04.203Z,34.90
2019-04-11T13:13:39.178Z,34.80
2019-04-11T13:16:13.584Z,34.70
2019-04-11T13:19:03.602Z,34.70
2019-04-11T13:21:37.086Z,34.50
2019-04-11T13:24:28.168Z,34.40
2019-04-11T13:27:01.681Z,34.40
2019-04-11T13:29:52.036Z,34.30
2019-04-11T13:32:42.631Z,34.20
2019-04-11T13:35:21.993Z,34.10
2019-04-11T13:38:15.154Z,34.00
2019-04-11T13:40:47.354Z,34.00
2019-04-11T13:43:29.605Z,33.90
2019-04-11T13:46:20.336Z,33.90
2019-04-11T13:48:54.802Z,33.80
2019-04-11T13:51:28.346Z,33.70
2019-04-11T13:54:20.453Z,33.60
2019-04-11T13:57:11.648Z,33.50
2019-04-11T13:59:46.012Z,33.50
2019-04-11T14:02:20.384Z,33.40
2019-04-11T14:04:54.614Z,33.40
2019-04-11T14:07:28.111Z,33.40
2019-04-11T14:10:01.693Z,33.40
2019-04-11T14:12:36.555Z,33.30
2019-04-11T14:15:29.400Z,33.30
2019-04-11T14:18:04.862Z,33.20
2019-04-11T14:20:46.009Z,33.20
2019-04-11T14:23:26.782Z,33.20
2019-04-11T14:26:00.121Z,33.20
2019-04-11T14:28:38.986Z,33.20
2019-04-11T14:31:14.900Z,33.20
2019-04-11T14:33:51.471Z,33.10
2019-04-11T14:36:41.536Z,33.00
2019-04-11T14:39:17.425Z,33.00
2019-04-11T14:42:11.773Z,32.90
2019-04-11T14:44:45.716Z,32.80
2019-04-11T14:47:48.962Z,32.70
2019-04-11T14:50:25.348Z,32.60
2019-04-11T14:53:00.881Z,32.50
2019-04-11T14:55:33.397Z,32.60
2019-04-11T14:58:23.586Z,32.50
2019-04-11T15:04:07.298Z,32.40
2019-04-11T15:06:44.597Z,32.40
2019-04-11T15:09:17.702Z,32.30
2019-04-11T15:11:57.573Z,32.40
2019-04-11T15:14:51.582Z,32.40
2019-04-11T15:17:24.253Z,32.40
2019-04-11T15:20:06.955Z,32.40
2019-04-11T15:22:41.493Z,32.40
2019-04-11T15:25:31.962Z,32.40
2019-04-11T15:28:12.314Z,32.30
2019-04-11T15:31:01.263Z,32.30
2019-04-11T15:33:51.156Z,32.30
2019-04-11T15:36:27.886Z,32.30
2019-04-11T15:39:18.000Z,32.20
2019-04-11T15:42:00.356Z,32.10
2019-04-11T15:44:38.291Z,32.10
2019-04-11T15:47:14.340Z,32.00
2019-04-11T15:49:50.370Z,32.00
2019-04-11T15:52:22.815Z,32.00
2019-04-11T15:55:14.566Z,32.00
2019-04-11T15:57:48.338Z,31.90
2019-04-11T16:00:22.848Z,31.90
2019-04-11T16:02:56.369Z,31.80
2019-04-11T16:08:08.591Z,31.70
2019-04-11T16:10:42.000Z,31.70
2019-04-11T16:13:14.641Z,31.60
2019-04-11T16:15:47.316Z,31.60
2019-04-11T16:18:27.681Z,31.60
2019-04-11T16:21:17.970Z,31.50
2019-04-11T16:23:43.649Z,31.50
2019-04-11T16:26:16.862Z,31.40
2019-04-11T16:28:50.836Z,31.40
2019-04-11T16:37:25.287Z,31.40
2019-04-11T16:43:00.820Z,31.40
2019-04-11T16:51:30.353Z,31.40
2019-04-11T16:53:55.182Z,31.30
2019-04-11T16:56:33.466Z,31.20
2019-04-11T16:59:20.074Z,31.20
2019-04-11T17:01:53.874Z,31.10
2019-04-11T17:04:28.509Z,31.00
2019-04-11T17:07:01.046Z,30.90
2019-04-11T17:09:35.011Z,30.90
2019-04-11T17:12:07.410Z,30.80
2019-04-11T17:14:39.644Z,30.80
2019-04-11T17:17:15.255Z,30.80
2019-04-11T17:19:57.362Z,30.70
2019-04-11T17:22:33.263Z,30.70
2019-04-11T17:25:08.317Z,30.60
2019-04-11T17:27:44.493Z,30.60
2019-04-11T17:30:24.463Z,30.50
2019-04-11T17:33:06.479Z,30.40
2019-04-11T17:35:48.712Z,30.30
2019-04-11T17:38:17.997Z,30.20
2019-04-11T17:43:42.210Z,30.10
2019-04-11T17:46:18.659Z,30.10
2019-04-11T17:48:50.572Z,30.00
2019-04-11T17:51:22.887Z,30.00
2019-04-11T17:54:01.491Z,30.00
2019-04-11T17:56:37.158Z,30.00
2019-04-11T17:59:14.363Z,30.00
2019-04-11T18:01:49.547Z,30.00
2019-04-11T18:04:22.986Z,30.00
2019-04-11T18:06:56.593Z,30.00
2019-04-11T18:09:28.454Z,29.90
2019-04-11T18:11:59.881Z,29.90
2019-04-11T18:14:39.850Z,29.90
2019-04-11T18:17:16.393Z,29.80
2019-04-11T18:19:49.633Z,29.80
2019-04-11T18:22:23.334Z,29.70
2019-04-11T18:24:55.680Z,29.70
2019-04-11T18:27:35.333Z,29.70
2019-04-11T18:30:08.281Z,29.70
2019-04-11T18:32:39.649Z,29.60
2019-04-11T18:35:12.080Z,29.60
2019-04-11T18:37:54.891Z,29.50
2019-04-11T18:40:27.095Z,29.50
2019-04-11T18:42:58.561Z,29.50
2019-04-11T18:45:41.711Z,29.50
2019-04-11T18:48:17.648Z,29.50
2019-04-11T18:50:53.205Z,29.50
2019-04-11T18:53:34.357Z,29.40
2019-04-11T18:56:13.682Z,29.40
2019-04-11T18:58:51.727Z,29.30
2019-04-11T19:01:23.297Z,29.30
2019-04-11T19:04:00.914Z,29.30
2019-04-11T19:06:34.346Z,29.30
2019-04-11T19:09:07.521Z,29.20
2019-04-11T19:11:46.941Z,29.20
2019-04-11T19:14:21.682Z,29.20
2019-04-11T19:17:01.042Z,29.10
2019-04-11T19:19:35.885Z,29.10
2019-04-11T19:22:27.429Z,29.00
2019-04-11T19:24:55.508Z,28.90
2019-04-11T19:27:37.637Z,28.90
2019-04-11T19:30:18.221Z,28.80
2019-04-11T19:32:52.875Z,28.70
2019-04-11T19:35:26.961Z,28.70
2019-04-11T19:38:03.217Z,28.60
2019-04-11T19:40:39.559Z,28.60
2019-04-11T19:43:13.842Z,28.60
2019-04-11T19:45:51.581Z,28.50
2019-04-11T19:48:22.780Z,28.50
2019-04-11T19:50:58.865Z,28.40
2019-04-11T19:53:35.100Z,28.40
2019-04-11T19:56:08.307Z,28.30
2019-04-11T19:58:45.759Z,28.30
2019-04-11T20:01:22.804Z,28.30
2019-04-11T20:06:46.450Z,28.30
2019-04-11T20:09:19.661Z,28.30
2019-04-11T20:11:54.281Z,28.20
2019-04-11T20:17:18.953Z,28.20
2019-04-11T20:19:48.137Z,28.20
2019-04-11T20:22:21.880Z,28.10
2019-04-11T20:25:02.954Z,28.10
2019-04-11T20:27:35.275Z,28.10
2019-04-11T20:30:09.182Z,28.10
2019-04-11T20:32:41.568Z,28.10
2019-04-11T20:35:13.837Z,28.10
2019-04-11T20:37:45.356Z,28.10
2019-04-11T20:40:18.127Z,28.10
2019-04-11T20:42:54.138Z,28.10
2019-04-11T20:45:28.511Z,28.10
2019-04-11T20:48:01.218Z,28.10
2019-04-11T20:50:35.677Z,28.10
2019-04-11T20:53:13.063Z,28.10
2019-04-11T20:55:42.224Z,28.10
2019-04-11T20:58:26.509Z,28.10
2019-04-11T21:00:50.844Z,28.10
2019-04-11T21:03:22.487Z,28.10
2019-04-11T21:05:53.931Z,28.00
2019-04-11T21:08:26.324Z,28.00
2019-04-11T21:11:02.043Z,28.00
2019-04-11T21:13:33.075Z,27.90
2019-04-11T21:18:56.716Z,27.90
2019-04-11T21:21:27.997Z,27.90
2019-04-11T21:24:01.068Z,27.90
2019-04-11T21:26:34.098Z,27.90
2019-04-11T21:29:05.379Z,27.80
2019-04-11T21:31:37.898Z,27.80
2019-04-11T21:34:12.750Z,27.80
2019-04-11T21:36:48.814Z,27.80
2019-04-11T21:39:21.096Z,27.80
2019-04-11T21:42:05.927Z,27.80
2019-04-11T21:44:41.800Z,27.80
2019-04-11T21:47:15.340Z,27.70
2019-04-11T21:49:47.716Z,27.70
2019-04-11T21:52:36.217Z,27.60
2019-04-11T21:55:08.504Z,27.60
2019-04-11T21:57:41.783Z,27.60
2019-04-11T22:00:30.149Z,27.60
2019-04-11T22:03:06.733Z,27.50
2019-04-11T22:05:40.161Z,27.50
2019-04-11T22:08:13.817Z,27.50
2019-04-11T22:10:47.085Z,27.40
2019-04-11T22:13:20.428Z,27.40
2019-04-11T22:15:53.917Z,27.40
2019-04-11T22:18:27.236Z,27.40
2019-04-11T22:21:00.682Z,27.40
2019-04-11T22:23:34.863Z,27.40
2019-04-11T22:26:08.701Z,27.40
2019-04-11T22:28:41.093Z,27.30
2019-04-11T22:31:13.463Z,27.30
2019-04-11T22:34:04.204Z,27.30
2019-04-11T22:36:36.523Z,27.30
2019-04-11T22:39:12.583Z,27.20
2019-04-11T22:41:45.863Z,27.10
2019-04-11T22:44:19.277Z,27.10
2019-04-11T22:46:53.557Z,27.10
2019-04-11T22:49:26.730Z,27.10
2019-04-11T22:52:00.158Z,27.10
2019-04-11T22:54:32.583Z,27.00
2019-04-11T22:57:07.404Z,27.00
2019-04-11T22:59:44.880Z,26.90
2019-04-11T23:02:19.664Z,27.00
2019-04-11T23:04:52.123Z,26.90
2019-04-11T23:07:25.757Z,26.90
2019-04-11T23:10:00.679Z,26.80
2019-04-11T23:12:35.359Z,26.80
2019-04-11T23:15:09.865Z,26.80
2019-04-11T23:17:43.826Z,26.80
2019-04-11T23:20:16.718Z,26.80
2019-04-11T23:22:49.942Z,26.80
2019-04-11T23:25:25.200Z,26.80
2019-04-11T23:27:58.346Z,26.70
2019-04-11T23:30:44.438Z,26.70
2019-04-11T23:36:08.400Z,26.70
2019-04-11T23:38:41.726Z,26.70
2019-04-11T23:41:14.903Z,26.70
2019-04-11T23:43:49.997Z,26.70
2019-04-11T23:46:25.002Z,26.80
2019-04-11T23:48:58.493Z,26.80
2019-04-11T23:51:31.904Z,26.80
2019-04-11T23:54:04.140Z,26.80
2019-04-11T23:56:37.579Z,26.80
2019-04-11T23:59:12.997Z,26.90
